createdAt,value
2023-09-27T00:00:25.055Z,8.57
2023-09-27T00:01:27.528Z,8.25
2023-09-27T00:02:30.101Z,8.20
2023-09-27T00:03:32.636Z,8.38
2023-09-27T00:04:35.756Z,8.38
2023-09-27T00:05:38.359Z,8.23
2023-09-27T00:06:40.895Z,7.70
2023-09-27T00:07:43.396Z,7.88
2023-09-27T00:08:45.704Z,8.25
2023-09-27T00:09:48.032Z,8.95
2023-09-27T00:10:50.365Z,9.38
2023-09-27T00:11:52.707Z,8.52
2023-09-27T00:12:55.047Z,9.10
2023-09-27T00:13:57.700Z,9.98
2023-09-27T00:15:02.847Z,9.70
2023-09-27T00:16:05.432Z,10.30
2023-09-27T00:17:07.765Z,9.57
2023-09-27T00:18:10.855Z,9.75
2023-09-27T00:19:13.227Z,9.65
2023-09-27T00:20:21.222Z,10.73
2023-09-27T00:21:23.668Z,9.77
2023-09-27T00:22:25.984Z,9.32
2023-09-27T00:23:28.247Z,9.13
2023-09-27T00:24:30.531Z,9.45
2023-09-27T00:25:32.982Z,9.63
2023-09-27T00:26:35.255Z,10.20
2023-09-27T00:27:38.389Z,9.55
2023-09-27T00:28:41.987Z,9.45
2023-09-27T00:29:44.448Z,9.32
2023-09-27T00:30:46.740Z,9.10
2023-09-27T00:31:50.299Z,8.43
2023-09-27T00:32:54.734Z,8.82
2023-09-27T00:33:57.577Z,7.97
2023-09-27T00:35:00.656Z,9.07
2023-09-27T00:36:03.450Z,8.50
2023-09-27T00:37:05.801Z,8.40
2023-09-27T00:38:08.220Z,9.10
2023-09-27T00:39:10.669Z,8.23
2023-09-27T00:40:14.323Z,8.45
2023-09-27T00:41:16.822Z,8.35
2023-09-27T00:42:19.270Z,8.32
2023-09-27T00:43:32.175Z,8.90
2023-09-27T00:44:34.693Z,8.90
2023-09-27T00:45:37.699Z,7.90
2023-09-27T00:46:40.779Z,8.25
2023-09-27T00:47:43.317Z,7.90
2023-09-27T00:48:45.803Z,7.97
2023-09-27T00:49:51.510Z,8.20
2023-09-27T00:50:54.598Z,7.90
2023-09-27T00:51:57.695Z,7.43
2023-09-27T00:53:00.209Z,7.55
2023-09-27T00:54:04.269Z,7.68
2023-09-27T00:55:11.022Z,7.97
2023-09-27T00:56:13.804Z,8.30
2023-09-27T00:57:16.241Z,7.53
2023-09-27T00:58:21.945Z,7.72
2023-09-27T00:59:25.734Z,7.97
2023-09-27T01:00:28.287Z,9.30
2023-09-27T01:01:31.022Z,8.90
2023-09-27T01:02:34.296Z,8.32
2023-09-27T01:03:37.125Z,8.05
2023-09-27T01:04:41.118Z,8.15
2023-09-27T01:05:44.958Z,8.52
2023-09-27T01:06:49.039Z,8.23
2023-09-27T01:07:52.788Z,7.47
2023-09-27T01:08:55.335Z,9.50
2023-09-27T01:09:57.788Z,8.40
2023-09-27T01:11:02.275Z,8.68
2023-09-27T01:12:06.024Z,8.65
2023-09-27T01:13:08.794Z,8.27
2023-09-27T01:14:11.528Z,8.43
2023-09-27T01:15:14.173Z,8.00
2023-09-27T01:16:16.561Z,8.75
2023-09-27T01:17:18.985Z,8.18
2023-09-27T01:18:21.362Z,9.00
2023-09-27T01:19:23.765Z,9.27
2023-09-27T01:20:28.741Z,7.55
2023-09-27T01:21:32.769Z,7.53
2023-09-27T01:22:35.296Z,7.68
2023-09-27T01:23:42.697Z,7.60
2023-09-27T01:24:45.682Z,8.05
2023-09-27T01:25:52.210Z,8.60
2023-09-27T01:26:55.806Z,7.68
2023-09-27T01:28:01.992Z,7.97
2023-09-27T01:29:05.688Z,8.20
2023-09-27T01:30:08.970Z,8.23
2023-09-27T01:31:11.300Z,8.68
2023-09-27T01:32:14.104Z,8.68
2023-09-27T01:33:18.742Z,9.95
2023-09-27T01:34:21.288Z,8.80
2023-09-27T01:35:23.687Z,9.02
2023-09-27T01:36:26.243Z,9.75
2023-09-27T01:37:28.809Z,9.77
2023-09-27T01:38:31.741Z,10.48
2023-09-27T01:39:34.276Z,11.57
2023-09-27T01:40:41.529Z,10.85
2023-09-27T01:41:43.825Z,10.30
2023-09-27T01:42:46.190Z,11.15
2023-09-27T01:43:48.600Z,10.18
2023-09-27T01:44:51.081Z,11.23
2023-09-27T01:45:53.430Z,10.05
2023-09-27T01:46:56.707Z,10.82
2023-09-27T01:48:00.176Z,10.13
2023-09-27T01:49:02.879Z,10.35
2023-09-27T01:50:06.373Z,10.63
2023-09-27T01:51:08.697Z,9.88
2023-09-27T01:52:11.043Z,10.45
2023-09-27T01:53:13.397Z,10.48
2023-09-27T01:54:15.910Z,9.95
2023-09-27T01:55:18.880Z,11.15
2023-09-27T01:56:21.219Z,10.40
2023-09-27T01:57:23.538Z,10.52
2023-09-27T01:58:26.051Z,10.48
2023-09-27T01:59:28.476Z,10.00
2023-09-27T02:00:31.018Z,10.63
2023-09-27T02:01:33.339Z,9.63
2023-09-27T02:02:35.868Z,10.15
2023-09-27T02:03:38.356Z,8.82
2023-09-27T02:04:40.784Z,8.75
2023-09-27T02:05:44.654Z,9.25
2023-09-27T02:06:47.224Z,9.50
2023-09-27T02:07:49.624Z,9.80
2023-09-27T02:08:52.058Z,9.68
2023-09-27T02:09:54.992Z,8.98
2023-09-27T02:10:58.044Z,8.68
2023-09-27T02:12:00.425Z,8.93
2023-09-27T02:13:02.752Z,9.93
2023-09-27T02:14:06.017Z,9.00
2023-09-27T02:15:10.163Z,9.18
2023-09-27T02:16:12.593Z,10.43
2023-09-27T02:17:15.110Z,9.55
2023-09-27T02:18:18.279Z,8.32
2023-09-27T02:19:20.656Z,8.88
2023-09-27T02:20:24.693Z,9.35
2023-09-27T02:21:27.402Z,10.07
2023-09-27T02:22:30.683Z,10.25
2023-09-27T02:23:33.121Z,9.45
2023-09-27T02:24:35.885Z,10.52
2023-09-27T02:25:38.834Z,9.80
2023-09-27T02:26:41.544Z,10.57
2023-09-27T02:27:44.312Z,11.10
2023-09-27T02:28:46.781Z,10.50
2023-09-27T02:29:49.115Z,10.73
2023-09-27T02:30:51.404Z,10.27
2023-09-27T02:31:53.815Z,11.50
2023-09-27T02:32:56.562Z,12.50
2023-09-27T02:33:58.922Z,10.80
2023-09-27T02:35:02.340Z,11.20
2023-09-27T02:36:05.089Z,11.90
2023-09-27T02:37:07.354Z,10.45
2023-09-27T02:38:10.500Z,11.20
2023-09-27T02:39:13.068Z,11.20
2023-09-27T02:40:15.874Z,11.25
2023-09-27T02:41:18.275Z,10.98
2023-09-27T02:42:21.429Z,10.90
2023-09-27T02:43:23.728Z,11.82
2023-09-27T02:44:26.535Z,12.25
2023-09-27T02:45:29.078Z,11.52
2023-09-27T02:46:31.447Z,12.70
2023-09-27T02:47:33.978Z,11.52
2023-09-27T02:48:37.365Z,12.27
2023-09-27T02:49:39.778Z,11.00
2023-09-27T02:50:47.958Z,11.23
2023-09-27T02:51:53.335Z,10.73
2023-09-27T02:52:55.695Z,10.93
2023-09-27T02:53:58.134Z,10.23
2023-09-27T02:55:00.913Z,10.02
2023-09-27T02:56:06.482Z,10.13
2023-09-27T02:57:11.584Z,10.23
2023-09-27T02:58:14.033Z,9.48
2023-09-27T02:59:17.014Z,9.93
2023-09-27T03:00:20.512Z,9.98
2023-09-27T03:01:23.031Z,9.10
2023-09-27T03:02:26.147Z,9.82
2023-09-27T03:03:29.074Z,8.95
2023-09-27T03:04:32.212Z,9.32
2023-09-27T03:05:37.497Z,8.73
2023-09-27T03:06:40.977Z,9.63
2023-09-27T03:07:46.250Z,9.40
2023-09-27T03:08:49.558Z,8.90
2023-09-27T03:09:52.103Z,9.38
2023-09-27T03:10:54.523Z,9.80
2023-09-27T03:11:56.933Z,9.73
2023-09-27T03:13:00.207Z,8.82
2023-09-27T03:14:02.871Z,9.25
2023-09-27T03:15:06.592Z,8.38
2023-09-27T03:16:08.929Z,8.80
2023-09-27T03:17:11.770Z,7.65
2023-09-27T03:18:14.789Z,7.68
2023-09-27T03:19:17.112Z,7.93
2023-09-27T03:20:21.074Z,8.98
2023-09-27T03:21:24.656Z,8.13
2023-09-27T03:22:27.387Z,7.97
2023-09-27T03:23:30.127Z,7.68
2023-09-27T03:24:35.470Z,7.95
2023-09-27T03:25:37.798Z,7.55
2023-09-27T03:26:40.225Z,7.65
2023-09-27T03:27:42.722Z,7.43
2023-09-27T03:28:45.295Z,8.25
2023-09-27T03:29:47.818Z,8.02
2023-09-27T03:30:50.612Z,7.50
2023-09-27T03:31:53.730Z,8.32
2023-09-27T03:32:57.212Z,8.10
2023-09-27T03:34:00.100Z,8.52
2023-09-27T03:35:02.527Z,8.20
2023-09-27T03:36:05.314Z,8.18
2023-09-27T03:37:07.766Z,9.27
2023-09-27T03:38:10.106Z,9.07
2023-09-27T03:39:12.852Z,10.00
2023-09-27T03:40:15.957Z,9.57
2023-09-27T03:41:18.942Z,9.57
2023-09-27T03:42:21.669Z,9.15
2023-09-27T03:43:23.976Z,9.50
2023-09-27T03:44:26.693Z,9.05
2023-09-27T03:45:30.615Z,10.20
2023-09-27T03:46:33.591Z,9.07
2023-09-27T03:47:37.021Z,9.02
2023-09-27T03:48:39.500Z,9.82
2023-09-27T03:49:42.622Z,9.13
2023-09-27T03:50:45.058Z,10.60
2023-09-27T03:51:47.394Z,9.57
2023-09-27T03:52:49.900Z,9.73
2023-09-27T03:53:52.260Z,9.77
2023-09-27T03:54:55.054Z,9.45
2023-09-27T03:55:57.562Z,9.23
2023-09-27T03:57:00.460Z,9.93
2023-09-27T03:58:02.859Z,10.05
2023-09-27T03:59:05.285Z,10.02
2023-09-27T04:00:12.629Z,9.65
2023-09-27T04:01:16.732Z,10.95
2023-09-27T04:02:19.173Z,10.43
2023-09-27T04:03:21.832Z,10.27
2023-09-27T04:04:24.210Z,10.80
2023-09-27T04:05:27.869Z,10.35
2023-09-27T04:06:30.866Z,9.90
2023-09-27T04:07:33.230Z,10.65
2023-09-27T04:08:35.975Z,8.93
2023-09-27T04:09:38.381Z,9.75
2023-09-27T04:10:40.859Z,9.35
2023-09-27T04:11:43.153Z,9.05
2023-09-27T04:12:45.843Z,9.95
2023-09-27T04:13:49.748Z,9.82
2023-09-27T04:14:52.282Z,11.00
2023-09-27T04:15:54.664Z,11.02
2023-09-27T04:17:01.238Z,10.88
2023-09-27T04:18:05.053Z,11.75
2023-09-27T04:19:07.608Z,12.30
2023-09-27T04:20:17.875Z,10.80
2023-09-27T04:21:20.220Z,11.35
2023-09-27T04:22:22.744Z,11.18
2023-09-27T04:23:27.042Z,11.98
2023-09-27T04:24:29.482Z,11.07
2023-09-27T04:25:31.784Z,11.43
2023-09-27T04:26:34.360Z,10.68
2023-09-27T04:27:36.781Z,9.55
2023-09-27T04:28:39.143Z,9.80
2023-09-27T04:29:41.504Z,10.63
2023-09-27T04:30:43.993Z,9.85
2023-09-27T04:31:46.519Z,8.88
2023-09-27T04:32:53.010Z,8.82
2023-09-27T04:33:55.521Z,8.70
2023-09-27T04:34:58.673Z,8.50
2023-09-27T04:36:01.254Z,9.38
2023-09-27T04:37:03.725Z,9.15
2023-09-27T04:38:06.028Z,8.70
2023-09-27T04:39:12.409Z,8.32
2023-09-27T04:40:17.779Z,9.27
2023-09-27T04:41:21.913Z,8.30
2023-09-27T04:42:24.424Z,7.30
2023-09-27T04:43:26.769Z,8.30
2023-09-27T04:44:29.780Z,8.38
2023-09-27T04:45:32.327Z,7.13
2023-09-27T04:46:34.743Z,8.25
2023-09-27T04:47:37.362Z,8.52
2023-09-27T04:48:39.840Z,8.43
2023-09-27T04:49:42.110Z,8.52
2023-09-27T04:50:45.670Z,8.95
2023-09-27T04:51:48.011Z,9.25
2023-09-27T04:52:50.921Z,8.57
2023-09-27T04:53:53.257Z,8.35
2023-09-27T04:54:57.761Z,8.35
2023-09-27T04:56:00.292Z,8.65
2023-09-27T04:57:02.784Z,9.15
2023-09-27T04:58:05.022Z,9.32
2023-09-27T04:59:08.177Z,9.65
2023-09-27T05:00:21.075Z,9.30
2023-09-27T05:01:24.005Z,10.05
2023-09-27T05:02:28.589Z,9.55
2023-09-27T05:03:31.348Z,9.18
2023-09-27T05:04:33.715Z,9.25
2023-09-27T05:05:35.969Z,10.65
2023-09-27T05:06:39.243Z,10.07
2023-09-27T05:07:41.860Z,9.90
2023-09-27T05:08:44.192Z,10.02
2023-09-27T05:09:47.288Z,10.00
2023-09-27T05:10:49.567Z,9.93
2023-09-27T05:11:51.836Z,9.48
2023-09-27T05:12:54.578Z,9.52
2023-09-27T05:13:57.012Z,9.23
2023-09-27T05:14:59.931Z,9.25
2023-09-27T05:16:02.795Z,9.32
2023-09-27T05:17:05.926Z,9.70
2023-09-27T05:18:08.441Z,10.50
2023-09-27T05:19:12.175Z,8.73
2023-09-27T05:20:14.827Z,9.75
2023-09-27T05:21:17.199Z,10.00
2023-09-27T05:22:20.636Z,10.18
2023-09-27T05:23:22.961Z,9.05
2023-09-27T05:24:25.588Z,10.43
2023-09-27T05:25:28.181Z,10.02
2023-09-27T05:26:30.547Z,9.48
2023-09-27T05:27:33.133Z,9.60
2023-09-27T05:28:35.450Z,10.18
2023-09-27T05:29:37.996Z,9.30
2023-09-27T05:30:40.431Z,10.48
2023-09-27T05:31:43.892Z,9.27
2023-09-27T05:32:47.381Z,9.70
2023-09-27T05:33:49.995Z,9.95
2023-09-27T05:34:52.387Z,9.00
2023-09-27T05:35:54.700Z,9.88
2023-09-27T05:36:57.554Z,9.95
2023-09-27T05:38:00.379Z,9.45
2023-09-27T05:39:05.721Z,10.15
2023-09-27T05:40:10.646Z,9.70
2023-09-27T05:41:13.329Z,9.00
2023-09-27T05:42:16.279Z,9.32
2023-09-27T05:43:18.609Z,9.20
2023-09-27T05:44:21.420Z,8.80
2023-09-27T05:45:24.020Z,9.00
2023-09-27T05:46:28.206Z,9.15
2023-09-27T05:47:30.929Z,8.68
2023-09-27T05:48:33.750Z,8.82
2023-09-27T05:49:36.284Z,8.95
2023-09-27T05:50:39.259Z,8.10
2023-09-27T05:51:42.226Z,9.48
2023-09-27T05:52:46.246Z,8.45
2023-09-27T05:53:53.319Z,9.35
2023-09-27T05:54:56.373Z,8.25
2023-09-27T05:56:00.874Z,9.50
2023-09-27T05:57:04.307Z,9.13
2023-09-27T05:58:06.932Z,8.25
2023-09-27T05:59:13.698Z,8.95
2023-09-27T06:00:17.213Z,9.00
2023-09-27T06:01:20.918Z,8.43
2023-09-27T06:02:32.336Z,9.10
2023-09-27T06:03:42.998Z,8.23
2023-09-27T06:04:46.247Z,8.38
2023-09-27T06:05:48.530Z,8.20
2023-09-27T06:06:51.016Z,8.95
2023-09-27T06:07:54.256Z,8.77
2023-09-27T06:08:56.872Z,9.65
2023-09-27T06:09:59.344Z,10.00
2023-09-27T06:11:01.905Z,8.48
2023-09-27T06:12:05.575Z,9.18
2023-09-27T06:13:08.445Z,9.45
2023-09-27T06:14:11.706Z,8.82
2023-09-27T06:15:15.489Z,9.23
2023-09-27T06:16:21.237Z,8.23
2023-09-27T06:17:24.392Z,8.63
2023-09-27T06:18:26.974Z,9.70
2023-09-27T06:19:29.447Z,9.13
2023-09-27T06:20:32.048Z,9.18
2023-09-27T06:21:35.603Z,9.98
2023-09-27T06:22:38.250Z,9.20
2023-09-27T06:23:41.147Z,9.52
2023-09-27T06:24:44.112Z,10.38
2023-09-27T06:25:47.599Z,10.27
2023-09-27T06:26:50.097Z,9.65
2023-09-27T06:27:53.513Z,9.95
2023-09-27T06:28:56.046Z,9.60
2023-09-27T06:29:59.211Z,9.70
2023-09-27T06:31:01.650Z,9.75
2023-09-27T06:32:04.292Z,9.63
2023-09-27T06:33:06.655Z,8.90
2023-09-27T06:34:09.023Z,8.70
2023-09-27T06:35:14.525Z,9.30
2023-09-27T06:36:17.467Z,9.20
2023-09-27T06:37:19.877Z,8.90
2023-09-27T06:38:23.200Z,9.23
2023-09-27T06:39:26.372Z,9.00
2023-09-27T06:40:30.753Z,10.05
2023-09-27T06:41:33.349Z,9.82
2023-09-27T06:42:35.921Z,9.10
2023-09-27T06:43:39.213Z,8.65
2023-09-27T06:44:42.068Z,9.60
2023-09-27T06:45:44.903Z,9.77
2023-09-27T06:46:49.131Z,9.73
2023-09-27T06:47:52.506Z,10.23
2023-09-27T06:48:55.462Z,10.63
2023-09-27T06:49:57.916Z,10.68
2023-09-27T06:51:00.739Z,9.88
2023-09-27T06:52:03.111Z,9.77
2023-09-27T06:53:21.679Z,9.55
2023-09-27T06:54:27.128Z,8.93
2023-09-27T06:55:29.511Z,9.20
2023-09-27T06:56:31.961Z,9.88
2023-09-27T06:57:34.549Z,10.05
2023-09-27T06:58:36.907Z,9.50
2023-09-27T06:59:40.532Z,9.55
2023-09-27T07:00:43.276Z,9.77
2023-09-27T07:01:45.683Z,9.30
2023-09-27T07:02:49.446Z,8.50
2023-09-27T07:03:52.513Z,9.63
2023-09-27T07:04:55.534Z,9.00
2023-09-27T07:05:58.804Z,9.63
2023-09-27T07:07:01.246Z,9.50
2023-09-27T07:08:04.964Z,9.27
2023-09-27T07:09:14.382Z,9.60
2023-09-27T07:10:16.954Z,9.15
2023-09-27T07:11:21.233Z,8.63
2023-09-27T07:12:23.689Z,9.15
2023-09-27T07:13:26.373Z,9.18
2023-09-27T07:14:29.342Z,9.43
2023-09-27T07:15:32.957Z,8.75
2023-09-27T07:16:43.355Z,8.93
2023-09-27T07:17:53.736Z,9.80
2023-09-27T07:18:57.501Z,8.88
2023-09-27T07:19:59.976Z,8.70
2023-09-27T07:21:02.958Z,8.93
2023-09-27T07:22:05.273Z,9.93
2023-09-27T07:23:09.730Z,8.65
2023-09-27T07:24:12.440Z,8.57
2023-09-27T07:25:19.416Z,8.65
2023-09-27T07:26:22.053Z,8.65
2023-09-27T07:27:24.808Z,8.88
2023-09-27T07:28:28.057Z,8.60
2023-09-27T07:29:31.543Z,8.98
2023-09-27T07:30:35.040Z,8.48
2023-09-27T07:31:37.456Z,8.88
2023-09-27T07:32:43.131Z,8.45
2023-09-27T07:33:46.494Z,8.45
2023-09-27T07:34:49.287Z,9.00
2023-09-27T07:35:53.394Z,8.35
2023-09-27T07:36:55.816Z,8.23
2023-09-27T07:37:58.915Z,8.98
2023-09-27T07:39:06.818Z,8.00
2023-09-27T07:40:13.983Z,7.93
2023-09-27T07:41:16.976Z,8.32
2023-09-27T07:42:19.875Z,7.93
2023-09-27T07:43:22.883Z,7.50
2023-09-27T07:44:27.575Z,8.18
2023-09-27T07:45:32.012Z,7.82
2023-09-27T07:46:34.913Z,8.00
2023-09-27T07:47:37.413Z,8.30
2023-09-27T07:48:42.637Z,8.23
2023-09-27T07:49:45.098Z,7.80
2023-09-27T07:50:47.488Z,7.97
2023-09-27T07:51:50.077Z,7.85
2023-09-27T07:52:52.840Z,7.97
2023-09-27T07:53:55.499Z,9.30
2023-09-27T07:54:59.888Z,8.52
2023-09-27T07:56:02.340Z,7.38
2023-09-27T07:57:06.626Z,7.88
2023-09-27T07:58:08.916Z,7.30
2023-09-27T07:59:11.340Z,7.68
2023-09-27T08:00:20.273Z,7.00
2023-09-27T08:01:23.368Z,8.02
2023-09-27T08:02:25.984Z,7.65
2023-09-27T08:03:29.367Z,8.10
2023-09-27T08:04:31.850Z,7.85
2023-09-27T08:05:34.600Z,7.30
2023-09-27T08:06:37.159Z,7.78
2023-09-27T08:07:40.330Z,7.78
2023-09-27T08:08:42.782Z,7.53
2023-09-27T08:09:45.059Z,7.75
2023-09-27T08:10:48.646Z,7.43
2023-09-27T08:11:51.962Z,7.82
2023-09-27T08:12:54.461Z,8.07
2023-09-27T08:13:56.817Z,7.25
2023-09-27T08:15:00.743Z,7.93
2023-09-27T08:16:04.930Z,7.45
2023-09-27T08:17:08.400Z,7.32
2023-09-27T08:18:11.360Z,6.97
2023-09-27T08:19:13.810Z,7.05
2023-09-27T08:20:16.526Z,7.78
2023-09-27T08:21:20.171Z,7.63
2023-09-27T08:22:22.659Z,7.30
2023-09-27T08:23:25.078Z,7.20
2023-09-27T08:24:27.456Z,6.47
2023-09-27T08:25:29.973Z,7.38
2023-09-27T08:26:34.397Z,6.45
2023-09-27T08:27:38.106Z,6.35
2023-09-27T08:28:41.193Z,6.78
2023-09-27T08:29:43.835Z,7.82
2023-09-27T08:30:46.378Z,6.80
2023-09-27T08:31:48.985Z,6.85
2023-09-27T08:32:52.820Z,6.40
2023-09-27T08:33:55.407Z,6.28
2023-09-27T08:34:57.732Z,7.20
2023-09-27T08:36:00.887Z,6.53
2023-09-27T08:37:03.559Z,5.88
2023-09-27T08:38:06.084Z,5.93
2023-09-27T08:39:10.816Z,5.95
2023-09-27T08:40:16.541Z,5.97
2023-09-27T08:41:19.500Z,6.45
2023-09-27T08:42:23.592Z,7.07
2023-09-27T08:43:27.553Z,6.25
2023-09-27T08:44:30.163Z,6.50
2023-09-27T08:45:36.816Z,6.13
2023-09-27T08:46:39.466Z,6.75
2023-09-27T08:47:46.302Z,6.43
2023-09-27T08:48:49.951Z,6.10
2023-09-27T08:49:52.914Z,7.32
2023-09-27T08:50:56.427Z,5.85
2023-09-27T08:51:59.206Z,6.40
2023-09-27T08:53:01.431Z,6.47
2023-09-27T08:54:03.800Z,5.93
2023-09-27T08:55:08.140Z,6.43
2023-09-27T08:56:13.406Z,5.55
2023-09-27T08:57:16.106Z,6.15
2023-09-27T08:58:19.436Z,6.82
2023-09-27T08:59:22.002Z,5.97
2023-09-27T09:00:28.584Z,6.15
2023-09-27T09:01:34.539Z,5.95
2023-09-27T09:02:37.141Z,6.03
2023-09-27T09:03:42.505Z,6.07
2023-09-27T09:04:45.215Z,5.63
2023-09-27T09:05:50.522Z,6.60
2023-09-27T09:06:53.057Z,6.10
2023-09-27T09:08:02.653Z,5.82
2023-09-27T09:09:12.523Z,5.97
2023-09-27T09:10:16.400Z,5.78
2023-09-27T09:11:18.744Z,6.80
2023-09-27T09:12:21.220Z,6.50
2023-09-27T09:13:24.348Z,5.68
2023-09-27T09:14:51.248Z,6.03
2023-09-27T09:15:53.981Z,5.63
2023-09-27T09:16:56.489Z,6.30
2023-09-27T09:17:59.336Z,5.95
2023-09-27T09:20:50.078Z,6.15
2023-09-27T09:22:10.171Z,5.88
2023-09-27T09:23:14.108Z,5.78
2023-09-27T09:24:21.701Z,5.75
2023-09-27T09:25:24.807Z,6.35
2023-09-27T09:26:29.860Z,6.05
2023-09-27T09:27:34.248Z,5.47
2023-09-27T09:28:54.777Z,6.70
2023-09-27T09:29:58.423Z,4.85
2023-09-27T09:31:01.130Z,6.18
2023-09-27T09:32:10.008Z,5.78
2023-09-27T09:33:21.421Z,5.93
2023-09-27T09:34:23.870Z,5.78
2023-09-27T09:35:35.585Z,5.65
2023-09-27T09:36:40.298Z,5.65
2023-09-27T09:37:43.456Z,5.82
2023-09-27T09:38:46.636Z,5.45
2023-09-27T09:39:50.926Z,5.47
2023-09-27T09:40:58.164Z,5.50
2023-09-27T09:42:01.692Z,5.40
2023-09-27T09:43:04.537Z,5.03
2023-09-27T09:44:25.531Z,5.18
2023-09-27T09:45:30.398Z,5.38
2023-09-27T09:46:34.017Z,5.15
2023-09-27T09:47:37.196Z,5.18
2023-09-27T09:48:39.949Z,6.13
2023-09-27T09:49:43.151Z,6.00
2023-09-27T09:50:46.355Z,5.32
2023-09-27T09:51:50.444Z,5.80
2023-09-27T09:52:58.621Z,4.82
2023-09-27T09:54:01.577Z,5.35
2023-09-27T09:55:17.752Z,5.60
2023-09-27T09:56:32.328Z,5.65
2023-09-27T09:57:52.508Z,5.50
2023-09-27T09:59:06.206Z,6.10
2023-09-27T10:00:18.425Z,5.47
2023-09-27T10:01:23.145Z,5.75
2023-09-27T10:02:28.885Z,5.82
2023-09-27T10:03:34.643Z,5.90
2023-09-27T10:04:38.422Z,5.78
2023-09-27T10:05:41.530Z,5.32
2023-09-27T10:06:49.589Z,6.22
2023-09-27T10:07:53.301Z,5.93
2023-09-27T10:08:56.070Z,6.03
2023-09-27T10:09:58.567Z,5.72
2023-09-27T10:11:05.154Z,5.53
2023-09-27T10:12:07.717Z,5.97
2023-09-27T10:13:11.407Z,5.15
2023-09-27T10:14:14.358Z,5.80
2023-09-27T10:15:21.539Z,5.40
2023-09-27T10:16:25.073Z,6.20
2023-09-27T10:17:27.981Z,5.47
2023-09-27T10:18:35.133Z,5.65
2023-09-27T10:19:37.505Z,6.40
2023-09-27T10:21:09.487Z,5.47
2023-09-27T10:22:17.652Z,5.50
2023-09-27T10:23:20.032Z,5.80
2023-09-27T10:24:35.273Z,5.22
2023-09-27T10:25:37.762Z,5.65
2023-09-27T10:26:40.219Z,5.18
2023-09-27T10:28:01.203Z,5.00
2023-09-27T10:29:11.026Z,5.75
2023-09-27T10:30:13.654Z,5.38
2023-09-27T10:31:19.107Z,6.10
2023-09-27T10:32:21.964Z,5.43
2023-09-27T10:33:27.288Z,5.45
2023-09-27T10:34:29.608Z,5.80
2023-09-27T10:35:34.528Z,5.43
2023-09-27T10:36:36.865Z,5.38
2023-09-27T10:37:58.848Z,5.63
2023-09-27T10:39:01.919Z,4.85
2023-09-27T10:40:21.283Z,4.65
2023-09-27T10:41:39.980Z,5.45
2023-09-27T10:42:45.381Z,5.07
2023-09-27T10:43:47.774Z,4.95
2023-09-27T10:44:51.536Z,5.28
2023-09-27T10:45:57.543Z,5.20
2023-09-27T10:47:02.363Z,4.93
2023-09-27T10:48:19.734Z,4.72
2023-09-27T10:49:23.392Z,4.78
2023-09-27T10:50:30.752Z,4.35
2023-09-27T10:51:35.024Z,5.40
2023-09-27T10:52:38.763Z,4.72
2023-09-27T10:53:41.251Z,5.07
2023-09-27T10:54:44.973Z,4.95
2023-09-27T10:55:47.487Z,4.55
2023-09-27T10:56:54.495Z,4.45
2023-09-27T10:57:57.781Z,5.10
2023-09-27T10:59:00.157Z,4.75
2023-09-27T11:00:10.778Z,5.03
2023-09-27T11:01:13.338Z,4.60
2023-09-27T11:02:15.828Z,4.50
2023-09-27T11:03:19.452Z,5.05
2023-09-27T11:04:26.454Z,4.90
2023-09-27T11:05:28.762Z,5.03
2023-09-27T11:06:34.718Z,4.75
2023-09-27T11:08:03.529Z,5.00
2023-09-27T11:09:09.870Z,4.80
2023-09-27T11:10:12.479Z,4.95
2023-09-27T11:11:14.905Z,4.80
2023-09-27T11:12:24.270Z,4.65
2023-09-27T11:13:30.760Z,4.30
2023-09-27T11:14:34.879Z,4.22
2023-09-27T11:15:38.375Z,4.38
2023-09-27T11:16:40.931Z,4.82
2023-09-27T11:17:43.640Z,4.53
2023-09-27T11:18:47.916Z,5.45
2023-09-27T11:19:51.112Z,4.63
2023-09-27T11:20:53.543Z,4.57
2023-09-27T11:21:56.212Z,4.80
2023-09-27T11:22:59.878Z,4.75
2023-09-27T11:24:08.011Z,4.47
2023-09-27T11:25:29.374Z,5.03
2023-09-27T11:26:33.008Z,4.43
2023-09-27T11:27:35.397Z,4.65
2023-09-27T11:28:37.784Z,6.28
2023-09-27T11:29:40.235Z,4.60
2023-09-27T11:30:42.980Z,4.18
2023-09-27T11:31:45.348Z,4.90
2023-09-27T11:32:51.802Z,4.63
2023-09-27T11:33:54.573Z,4.10
2023-09-27T11:34:58.226Z,4.97
2023-09-27T11:36:06.452Z,4.93
2023-09-27T11:37:18.361Z,4.75
2023-09-27T11:38:27.827Z,5.05
2023-09-27T11:39:51.944Z,5.05
2023-09-27T11:40:55.288Z,4.82
2023-09-27T11:42:00.508Z,5.03
2023-09-27T11:43:03.540Z,4.45
2023-09-27T11:44:23.094Z,4.82
2023-09-27T11:45:25.447Z,4.47
2023-09-27T11:46:29.251Z,4.47
2023-09-27T11:47:33.623Z,5.38
2023-09-27T11:48:36.551Z,5.70
2023-09-27T11:49:39.136Z,4.88
2023-09-27T11:50:41.924Z,5.30
2023-09-27T11:51:45.319Z,5.50
2023-09-27T11:52:49.259Z,5.45
2023-09-27T11:53:52.136Z,5.10
2023-09-27T11:54:54.609Z,6.05
2023-09-27T11:55:57.151Z,6.10
2023-09-27T11:56:59.656Z,5.13
2023-09-27T11:58:02.054Z,5.85
2023-09-27T11:59:04.681Z,5.43
2023-09-27T12:00:09.606Z,5.55
2023-09-27T12:01:13.084Z,4.70
2023-09-27T12:02:27.304Z,5.25
2023-09-27T12:03:33.809Z,4.95
2023-09-27T12:04:36.575Z,5.45
2023-09-27T12:05:39.509Z,5.60
2023-09-27T12:06:42.646Z,5.28
2023-09-27T12:07:45.509Z,5.35
2023-09-27T12:08:48.157Z,6.90
2023-09-27T12:09:50.659Z,6.97
2023-09-27T12:10:53.015Z,5.95
2023-09-27T12:11:55.471Z,5.97
2023-09-27T12:12:57.876Z,6.38
2023-09-27T12:14:00.249Z,8.05
2023-09-27T12:15:02.624Z,5.95
2023-09-27T12:16:05.223Z,6.00
2023-09-27T12:17:08.194Z,5.65
2023-09-27T12:18:11.113Z,5.93
2023-09-27T12:19:14.449Z,6.00
2023-09-27T12:20:31.770Z,5.25
2023-09-27T12:21:39.418Z,5.70
2023-09-27T12:22:42.343Z,6.50
2023-09-27T12:23:45.997Z,5.85
2023-09-27T12:24:48.606Z,5.97
2023-09-27T12:25:51.009Z,5.45
2023-09-27T12:26:53.609Z,5.88
2023-09-27T12:27:56.027Z,6.10
2023-09-27T12:28:58.515Z,5.60
2023-09-27T12:30:00.977Z,5.60
2023-09-27T12:31:06.779Z,5.03
2023-09-27T12:32:09.249Z,5.18
2023-09-27T12:33:13.660Z,5.10
2023-09-27T12:34:16.096Z,5.60
2023-09-27T12:35:18.970Z,4.78
2023-09-27T12:36:22.655Z,5.53
2023-09-27T12:37:24.925Z,5.18
2023-09-27T12:38:27.625Z,5.25
2023-09-27T12:39:30.181Z,5.18
2023-09-27T12:40:33.883Z,5.07
2023-09-27T12:41:36.626Z,5.55
2023-09-27T12:42:38.954Z,5.28
2023-09-27T12:43:42.424Z,5.20
2023-09-27T12:44:44.843Z,5.78
2023-09-27T12:45:47.219Z,5.75
2023-09-27T12:46:49.598Z,5.45
2023-09-27T12:47:52.096Z,5.38
2023-09-27T12:48:55.267Z,5.00
2023-09-27T12:50:00.543Z,5.30
2023-09-27T12:51:08.696Z,5.10
2023-09-27T12:52:11.137Z,5.15
2023-09-27T12:53:13.474Z,5.00
2023-09-27T12:54:16.336Z,5.75
2023-09-27T12:55:18.745Z,5.57
2023-09-27T12:56:21.144Z,5.43
2023-09-27T12:57:23.460Z,5.38
2023-09-27T12:58:25.945Z,4.78
2023-09-27T12:59:28.667Z,5.78
2023-09-27T13:00:31.391Z,5.72
2023-09-27T13:01:33.767Z,5.45
2023-09-27T13:02:36.212Z,5.28
2023-09-27T13:03:38.791Z,5.55
2023-09-27T13:04:41.233Z,4.50
2023-09-27T13:05:44.064Z,5.25
2023-09-27T13:06:46.366Z,5.78
2023-09-27T13:07:48.697Z,4.20
2023-09-27T13:08:51.459Z,3.83
2023-09-27T13:09:53.738Z,4.35
2023-09-27T13:10:56.307Z,4.40
2023-09-27T13:11:59.006Z,4.70
2023-09-27T13:13:01.630Z,5.32
2023-09-27T13:14:04.124Z,4.82
2023-09-27T13:15:07.237Z,5.55
2023-09-27T13:16:09.795Z,5.82
2023-09-27T13:17:12.139Z,5.55
2023-09-27T13:18:14.869Z,5.22
2023-09-27T13:19:17.234Z,4.78
2023-09-27T13:20:19.604Z,5.53
2023-09-27T13:21:22.287Z,5.13
2023-09-27T13:22:25.005Z,5.22
2023-09-27T13:23:27.465Z,5.90
2023-09-27T13:24:29.909Z,5.60
2023-09-27T13:25:32.254Z,5.13
2023-09-27T13:26:34.778Z,5.07
2023-09-27T13:27:37.205Z,4.97
2023-09-27T13:28:40.056Z,5.45
2023-09-27T13:29:43.900Z,6.68
2023-09-27T13:30:46.298Z,5.68
2023-09-27T13:31:48.757Z,5.13
2023-09-27T13:32:51.282Z,5.25
2023-09-27T13:34:07.502Z,5.15
2023-09-27T13:35:13.307Z,5.25
2023-09-27T13:36:15.584Z,5.60
2023-09-27T13:37:21.041Z,5.22
2023-09-27T13:38:23.995Z,5.22
2023-09-27T13:39:30.764Z,5.03
2023-09-27T13:40:33.088Z,5.28
2023-09-27T13:41:48.051Z,5.68
2023-09-27T13:42:50.726Z,5.13
2023-09-27T13:43:53.237Z,4.95
2023-09-27T13:44:55.833Z,5.30
2023-09-27T13:45:58.249Z,5.35
2023-09-27T13:47:01.084Z,4.50
2023-09-27T13:48:04.874Z,5.05
2023-09-27T13:49:07.856Z,5.32
2023-09-27T13:50:10.680Z,5.20
2023-09-27T13:51:13.053Z,5.78
2023-09-27T13:52:15.358Z,5.32
2023-09-27T13:53:17.870Z,5.03
2023-09-27T13:54:20.964Z,4.88
2023-09-27T13:55:23.622Z,4.63
2023-09-27T13:56:25.921Z,5.20
2023-09-27T13:57:28.361Z,5.07
2023-09-27T13:58:30.860Z,4.55
2023-09-27T13:59:33.275Z,4.78
2023-09-27T14:00:35.768Z,5.22
2023-09-27T14:01:38.363Z,5.05
2023-09-27T14:02:43.619Z,4.90
2023-09-27T14:03:46.666Z,4.15
2023-09-27T14:04:50.676Z,4.57
2023-09-27T14:05:53.235Z,4.40
2023-09-27T14:06:55.728Z,4.90
2023-09-27T14:07:58.467Z,4.72
2023-09-27T14:09:01.159Z,6.93